Time;durP1;ratioP1;P1;durP2;ratioP2;P2;SDS_P1;SDS_P2;PMS_P1;PMS_P2;Temp;Humidity;BMP_temperature;BMP_pressure;BME280_temperature;BME280_humidity;BME280_pressure;Samples;Min_cycle;Max_cycle;Signal;HPM_P1;HPM_P2
2023/03/25 00:02:04;;;;;;;10.95;2.33;;;;;;;;;;4967234;28;100232;-76
2023/03/25 00:04:31;;;;;;;17.38;3.03;;;;;;;;;;4968979;28;98190;-77
2023/03/25 00:07:01;;;;;;;13.85;3.15;;;;;;;;;;4968397;28;99392;-77
2023/03/25 00:09:27;;;;;;;18.17;2.63;;;;;;;;;;4967607;28;99963;-77
2023/03/25 00:11:54;;;;;;;14.95;3.05;;;;;;;;;;4968350;28;98292;-77
2023/03/25 00:14:20;;;;;;;15.30;2.20;;;;;;;;;;4971282;28;99447;-76
2023/03/25 00:16:47;;;;;;;13.77;2.90;;;;;;;;;;4968034;28;98639;-76
2023/03/25 00:19:17;;;;;;;17.38;2.85;;;;;;;;;;4968368;28;99340;-76
2023/03/25 00:21:43;;;;;;;12.73;2.67;;;;;;;;;;4967796;28;100244;-76
2023/03/25 00:24:16;;;;;;;18.58;2.97;;;;;;;;;;4967363;28;98304;-76
2023/03/25 00:26:44;;;;;;;16.48;2.53;;;;;;;;;;4968191;28;99525;-76
2023/03/25 00:29:12;;;;;;;14.40;2.97;;;;;;;;;;4967365;28;98822;-77
2023/03/25 00:31:40;;;;;;;16.55;2.55;;;;;;;;;;4968076;28;98613;-77
2023/03/25 00:34:07;;;;;;;11.27;3.33;;;;;;;;;;4969523;28;99532;-76
2023/03/25 00:36:36;;;;;;;17.75;3.03;;;;;;;;;;4969978;28;99497;-76
2023/03/25 00:39:04;;;;;;;12.52;3.20;;;;;;;;;;4982458;28;99542;-76
2023/03/25 00:41:30;;;;;;;6.90;1.90;;;;;;;;;;4986307;28;100128;-76
2023/03/25 00:43:57;;;;;;;13.65;3.00;;;;;;;;;;4984507;28;98065;-75
2023/03/25 00:46:27;;;;;;;16.27;3.60;;;;;;;;;;4989800;28;98438;-76
2023/03/25 00:48:54;;;;;;;14.73;3.58;;;;;;;;;;4987829;28;101652;-76
2023/03/25 00:51:21;;;;;;;15.00;3.85;;;;;;;;;;4987666;28;98385;-76
2023/03/25 00:53:52;;;;;;;13.55;2.47;;;;;;;;;;4988092;28;98715;-76
2023/03/25 00:56:19;;;;;;;16.55;3.53;;;;;;;;;;4981342;28;98061;-76
2023/03/25 00:58:45;;;;;;;15.15;2.75;;;;;;;;;;4966096;28;100594;-77
2023/03/25 01:01:16;;;;;;;12.70;2.78;;;;;;;;;;4967945;28;101278;-77
2023/03/25 01:03:43;;;;;;;21.42;4.03;;;;;;;;;;4969835;28;98091;-77
2023/03/25 01:06:14;;;;;;;16.48;3.15;;;;;;;;;;4964547;28;98798;-77
2023/03/25 01:08:41;;;;;;;13.95;3.33;;;;;;;;;;4966113;28;100330;-77
2023/03/25 01:11:20;;;;;;;18.25;3.38;;;;;;;;;;4966125;28;99539;-76
2023/03/25 01:13:48;;;;;;;12.98;2.58;;;;;;;;;;4966321;28;99705;-77
2023/03/25 01:16:15;;;;;;;10.45;2.65;;;;;;;;;;4966983;28;98709;-75
2023/03/25 01:18:42;;;;;;;12.13;2.65;;;;;;;;;;4970562;28;98358;-77
2023/03/25 01:21:08;;;;;;;16.95;3.47;;;;;;;;;;4967259;28;98809;-77
2023/03/25 01:23:34;;;;;;;11.88;2.40;;;;;;;;;;4975916;28;98298;-77
2023/03/25 01:26:01;;;;;;;15.18;2.83;;;;;;;;;;4964794;28;99514;-77
2023/03/25 01:28:28;;;;;;;16.05;2.83;;;;;;;;;;4967727;28;98869;-77
2023/03/25 01:31:01;;;;;;;13.05;2.65;;;;;;;;;;4965390;28;98385;-76
2023/03/25 01:33:28;;;;;;;13.32;3.22;;;;;;;;;;4966984;28;99353;-77
2023/03/25 01:35:54;;;;;;;17.13;3.10;;;;;;;;;;4964797;28;99974;-76
2023/03/25 01:38:21;;;;;;;22.38;2.78;;;;;;;;;;4966101;28;98253;-77
2023/03/25 01:40:48;;;;;;;15.07;3.20;;;;;;;;;;4969350;28;100253;-76
2023/03/25 01:43:15;;;;;;;19.05;3.05;;;;;;;;;;4967713;28;98455;-77
2023/03/25 01:45:44;;;;;;;14.63;3.13;;;;;;;;;;4967797;28;99351;-76
2023/03/25 01:48:17;;;;;;;9.20;2.33;;;;;;;;;;4960127;28;99090;-77
2023/03/25 01:50:47;;;;;;;20.05;3.38;;;;;;;;;;4970146;28;98327;-77
2023/03/25 01:53:15;;;;;;;15.30;2.85;;;;;;;;;;4969416;28;101237;-77
2023/03/25 01:55:43;;;;;;;18.95;3.70;;;;;;;;;;4969938;28;98702;-77
2023/03/25 01:58:12;;;;;;;21.75;3.67;;;;;;;;;;4968285;28;98822;-77
2023/03/25 02:00:40;;;;;;;13.50;2.70;;;;;;;;;;4969001;28;99734;-77
2023/03/25 02:03:10;;;;;;;15.73;3.13;;;;;;;;;;4973884;28;99961;-76
2023/03/25 02:05:49;;;;;;;19.80;3.70;;;;;;;;;;4970466;28;99535;-75
2023/03/25 02:08:17;;;;;;;17.70;3.80;;;;;;;;;;4981121;28;101521;-75
2023/03/25 02:10:45;;;;;;;12.57;2.97;;;;;;;;;;4969936;28;98250;-76
2023/03/25 02:13:13;;;;;;;15.20;3.67;;;;;;;;;;4971124;28;98588;-76
2023/03/25 02:16:00;;;;;;;12.00;3.35;;;;;;;;;;4970065;28;99810;-76
2023/03/25 02:18:26;;;;;;;14.48;4.03;;;;;;;;;;4966722;28;98370;-76
2023/03/25 02:21:03;;;;;;;10.15;2.95;;;;;;;;;;4971291;28;99397;-76
2023/03/25 02:23:40;;;;;;;13.90;2.83;;;;;;;;;;4970086;28;99345;-76
2023/03/25 02:26:28;;;;;;;13.07;2.55;;;;;;;;;;4973221;28;99132;-76
2023/03/25 02:28:55;;;;;;;10.45;2.17;;;;;;;;;;4969848;28;99102;-76
2023/03/25 02:31:27;;;;;;;15.70;3.35;;;;;;;;;;4985702;28;98256;-75
2023/03/25 02:34:09;;;;;;;8.88;2.47;;;;;;;;;;4970626;28;99357;-76
2023/03/25 02:36:40;;;;;;;11.00;3.22;;;;;;;;;;4985681;28;101705;-75
2023/03/25 02:39:13;;;;;;;13.20;2.90;;;;;;;;;;4988794;28;98328;-76
2023/03/25 02:41:45;;;;;;;9.77;2.80;;;;;;;;;;4990899;28;99567;-75
2023/03/25 02:44:14;;;;;;;16.90;3.40;;;;;;;;;;4981574;28;100867;-77
2023/03/25 02:46:43;;;;;;;12.43;2.53;;;;;;;;;;4968710;28;98314;-77
2023/03/25 02:49:12;;;;;;;18.52;3.55;;;;;;;;;;4971233;28;101312;-77
2023/03/25 02:51:57;;;;;;;10.52;2.45;;;;;;;;;;4964198;28;98455;-77
2023/03/25 02:54:25;;;;;;;17.23;3.47;;;;;;;;;;4968299;28;98352;-77
2023/03/25 02:56:56;;;;;;;13.55;3.35;;;;;;;;;;4966845;28;99879;-76
2023/03/25 02:59:24;;;;;;;12.60;3.20;;;;;;;;;;4968050;28;98605;-77
2023/03/25 03:01:57;;;;;;;16.02;3.10;;;;;;;;;;4969058;28;98689;-76
2023/03/25 03:04:24;;;;;;;17.98;3.40;;;;;;;;;;4965821;28;98770;-76
2023/03/25 03:06:51;;;;;;;19.60;2.92;;;;;;;;;;4969279;28;98204;-76
2023/03/25 03:09:24;;;;;;;14.95;2.92;;;;;;;;;;4972854;28;99760;-77
2023/03/25 03:12:06;;;;;;;12.38;2.83;;;;;;;;;;4968457;28;98448;-77
2023/03/25 03:14:55;;;;;;;13.77;3.03;;;;;;;;;;4969583;28;99706;-77
2023/03/25 03:17:28;;;;;;;19.55;3.78;;;;;;;;;;4968395;28;100120;-76
2023/03/25 03:20:11;;;;;;;23.23;3.60;;;;;;;;;;4968167;28;98217;-76
2023/03/25 03:22:43;;;;;;;15.63;4.03;;;;;;;;;;4969773;28;99032;-76
2023/03/25 03:25:29;;;;;;;20.13;3.47;;;;;;;;;;4966877;28;99990;-76
2023/03/25 03:28:09;;;;;;;16.48;3.90;;;;;;;;;;4969284;28;98233;-76
2023/03/25 03:30:50;;;;;;;18.48;3.95;;;;;;;;;;4969149;28;98773;-76
2023/03/25 03:33:24;;;;;;;19.30;4.75;;;;;;;;;;4961409;28;99950;-75
2023/03/25 03:35:50;;;;;;;20.48;3.40;;;;;;;;;;4966832;28;98628;-75
2023/03/25 03:38:19;;;;;;;26.55;3.75;;;;;;;;;;4968732;28;100014;-75
2023/03/25 03:40:49;;;;;;;16.27;3.70;;;;;;;;;;4968328;28;98226;-76
2023/03/25 03:43:24;;;;;;;29.55;4.50;;;;;;;;;;4968338;28;99699;-76
2023/03/25 03:45:53;;;;;;;21.17;3.92;;;;;;;;;;4962412;28;99148;-76
2023/03/25 03:48:30;;;;;;;13.77;3.38;;;;;;;;;;4968317;28;98254;-76
2023/03/25 03:51:11;;;;;;;18.17;3.75;;;;;;;;;;4968478;28;99691;-76
2023/03/25 03:53:40;;;;;;;16.67;3.65;;;;;;;;;;4957992;28;100141;-76
2023/03/25 03:56:10;;;;;;;11.88;3.40;;;;;;;;;;4969020;28;98732;-76
2023/03/25 03:58:40;;;;;;;26.35;5.00;;;;;;;;;;4967909;28;100303;-76
2023/03/25 04:01:26;;;;;;;14.35;3.45;;;;;;;;;;4967940;28;98261;-76
2023/03/25 04:03:56;;;;;;;19.55;4.05;;;;;;;;;;4968326;28;99503;-75
2023/03/25 04:06:42;;;;;;;19.45;3.78;;;;;;;;;;4968835;28;98873;-75
2023/03/25 04:09:25;;;;;;;20.27;3.63;;;;;;;;;;4966467;28;98250;-75
2023/03/25 04:12:01;;;;;;;21.65;4.40;;;;;;;;;;4967728;28;99366;-74
2023/03/25 04:14:28;;;;;;;19.30;3.65;;;;;;;;;;4962563;28;98661;-75
2023/03/25 04:16:54;;;;;;;26.10;4.45;;;;;;;;;;4968128;28;98226;-75
2023/03/25 04:19:20;;;;;;;19.40;3.58;;;;;;;;;;4972182;28;99663;-75
2023/03/25 04:21:47;;;;;;;23.77;4.32;;;;;;;;;;4967683;28;98298;-75
2023/03/25 04:24:15;;;;;;;22.90;4.45;;;;;;;;;;4968100;28;99407;-74
2023/03/25 04:26:44;;;;;;;19.73;4.10;;;;;;;;;;4968553;28;99131;-74
2023/03/25 04:29:12;;;;;;;26.02;5.63;;;;;;;;;;4967302;28;98558;-74
2023/03/25 04:31:44;;;;;;;28.40;4.10;;;;;;;;;;4968063;28;99754;-75
2023/03/25 04:34:14;;;;;;;19.75;4.25;;;;;;;;;;4966794;28;100326;-76
2023/03/25 04:36:45;;;;;;;21.75;4.45;;;;;;;;;;4968078;28;98315;-76
2023/03/25 04:39:12;;;;;;;26.30;5.10;;;;;;;;;;4967751;28;98291;-75
2023/03/25 04:41:39;;;;;;;25.25;4.72;;;;;;;;;;4971295;28;100213;-75
2023/03/25 04:44:06;;;;;;;22.65;4.57;;;;;;;;;;4966772;28;100116;-75
2023/03/25 04:46:35;;;;;;;11.30;2.30;;;;;;;;;;4968107;28;100201;-75
2023/03/25 04:49:02;;;;;;;13.68;2.70;;;;;;;;;;4967710;28;98230;-75
2023/03/25 04:51:29;;;;;;;11.60;1.92;;;;;;;;;;4967683;28;99509;-75
2023/03/25 04:53:56;;;;;;;10.75;2.65;;;;;;;;;;4968114;28;100118;-75
2023/03/25 04:56:23;;;;;;;11.73;2.58;;;;;;;;;;4967185;28;99566;-75
2023/03/25 04:58:52;;;;;;;22.27;4.45;;;;;;;;;;4958847;28;99631;-75
2023/03/25 05:01:23;;;;;;;15.07;3.78;;;;;;;;;;4967771;28;99965;-75
2023/03/25 05:03:49;;;;;;;23.92;4.38;;;;;;;;;;4969778;28;98391;-75
2023/03/25 05:06:16;;;;;;;24.70;4.68;;;;;;;;;;4967820;28;100288;-75
2023/03/25 05:08:43;;;;;;;22.33;4.22;;;;;;;;;;4967425;28;98269;-74
2023/03/25 05:11:12;;;;;;;32.10;7.07;;;;;;;;;;4972835;28;102170;-74
2023/03/25 05:13:38;;;;;;;28.45;4.60;;;;;;;;;;4967605;28;98903;-74
2023/03/25 05:16:05;;;;;;;26.67;3.97;;;;;;;;;;4967203;28;98366;-75
2023/03/25 05:18:32;;;;;;;22.67;3.83;;;;;;;;;;4967010;28;99861;-74
2023/03/25 05:21:01;;;;;;;22.30;4.57;;;;;;;;;;4966843;28;100142;-74
2023/03/25 05:23:30;;;;;;;25.15;4.50;;;;;;;;;;4969261;28;98238;-75
2023/03/25 05:25:57;;;;;;;15.80;3.72;;;;;;;;;;4965204;28;100070;-75
2023/03/25 05:28:23;;;;;;;15.70;3.90;;;;;;;;;;4978269;28;98293;-75
2023/03/25 05:30:50;;;;;;;14.43;4.07;;;;;;;;;;4967146;28;100271;-75
2023/03/25 05:33:17;;;;;;;28.10;4.80;;;;;;;;;;4966337;28;100357;-75
2023/03/25 05:35:44;;;;;;;23.73;3.95;;;;;;;;;;4967219;28;98267;-75
2023/03/25 05:38:12;;;;;;;26.88;5.15;;;;;;;;;;4967132;28;99402;-75
2023/03/25 05:40:39;;;;;;;19.98;4.65;;;;;;;;;;4966347;28;100144;-74
2023/03/25 05:43:05;;;;;;;18.63;3.40;;;;;;;;;;4966942;28;98280;-75
2023/03/25 05:45:35;;;;;;;26.20;5.03;;;;;;;;;;4970333;28;99414;-75
2023/03/25 05:48:02;;;;;;;27.42;4.18;;;;;;;;;;4966691;28;98218;-75
2023/03/25 05:50:29;;;;;;;33.30;5.22;;;;;;;;;;4967046;28;98302;-75
2023/03/25 05:52:56;;;;;;;31.58;4.20;;;;;;;;;;4966427;28;100039;-75
2023/03/25 05:55:22;;;;;;;36.42;5.13;;;;;;;;;;4967425;28;98227;-76
2023/03/25 05:57:49;;;;;;;34.90;4.78;;;;;;;;;;4966625;28;99594;-75
2023/03/25 06:00:18;;;;;;;36.67;6.07;;;;;;;;;;4966622;28;99951;-76
2023/03/25 06:02:44;;;;;;;36.42;5.78;;;;;;;;;;4967647;28;98434;-75
2023/03/25 06:05:12;;;;;;;33.50;5.45;;;;;;;;;;4967689;28;98994;-75
2023/03/25 06:07:41;;;;;;;30.60;4.85;;;;;;;;;;4969218;28;99037;-74
2023/03/25 06:10:12;;;;;;;32.28;4.75;;;;;;;;;;4967106;28;99501;-74
2023/03/25 06:12:39;;;;;;;22.75;4.18;;;;;;;;;;4965981;28;99828;-74
2023/03/25 06:15:09;;;;;;;29.77;4.93;;;;;;;;;;4966073;28;98219;-75
2023/03/25 06:17:39;;;;;;;33.33;4.55;;;;;;;;;;4967546;28;99848;-75
2023/03/25 06:20:10;;;;;;;28.45;5.00;;;;;;;;;;4966773;28;99164;-75
2023/03/25 06:22:37;;;;;;;27.10;4.40;;;;;;;;;;4966230;28;98270;-74
2023/03/25 06:25:06;;;;;;;32.47;5.70;;;;;;;;;;4966463;28;101169;-74
2023/03/25 06:27:33;;;;;;;31.08;5.30;;;;;;;;;;4966784;28;100024;-74
2023/03/25 06:30:00;;;;;;;25.95;4.85;;;;;;;;;;4968335;28;98407;-75
2023/03/25 06:32:27;;;;;;;33.22;6.10;;;;;;;;;;4967155;28;99950;-75
2023/03/25 06:34:55;;;;;;;19.65;3.83;;;;;;;;;;4956932;28;98263;-74
2023/03/25 06:37:24;;;;;;;30.85;6.90;;;;;;;;;;4968468;28;99956;-75
2023/03/25 06:39:55;;;;;;;26.80;4.47;;;;;;;;;;4969345;28;100989;-74
2023/03/25 06:42:24;;;;;;;24.55;3.90;;;;;;;;;;4961441;28;98835;-74
2023/03/25 06:45:19;;;;;;;21.40;4.18;;;;;;;;;;4952823;28;98125;-74
2023/03/25 06:48:21;;;;;;;23.80;4.05;;;;;;;;;;4978661;28;99760;-74
2023/03/25 06:50:47;;;;;;;19.45;3.47;;;;;;;;;;4986899;28;98279;-74
2023/03/25 06:53:14;;;;;;;27.75;4.30;;;;;;;;;;4990569;28;99713;-75
2023/03/25 06:55:40;;;;;;;30.77;5.78;;;;;;;;;;4981720;28;98149;-73
2023/03/25 06:58:07;;;;;;;21.27;6.38;;;;;;;;;;4978423;28;99387;-73
2023/03/25 07:00:34;;;;;;;24.55;3.95;;;;;;;;;;4969196;28;99853;-74
2023/03/25 07:03:00;;;;;;;30.95;3.95;;;;;;;;;;4967824;28;98314;-73
2023/03/25 07:05:27;;;;;;;29.42;4.18;;;;;;;;;;4969604;28;99755;-73
2023/03/25 07:07:53;;;;;;;30.33;3.97;;;;;;;;;;4969297;28;100205;-74
2023/03/25 07:10:20;;;;;;;22.70;4.45;;;;;;;;;;4968914;28;98371;-74
2023/03/25 07:12:46;;;;;;;23.92;4.88;;;;;;;;;;4969188;28;99706;-74
2023/03/25 07:15:13;;;;;;;21.42;4.97;;;;;;;;;;4972126;28;98261;-74
2023/03/25 07:17:42;;;;;;;23.25;3.83;;;;;;;;;;4967193;28;100121;-74
2023/03/25 07:20:09;;;;;;;25.90;4.93;;;;;;;;;;4965707;28;99981;-74
2023/03/25 07:22:38;;;;;;;22.27;4.60;;;;;;;;;;4969120;28;98212;-73
2023/03/25 07:25:04;;;;;;;20.70;3.42;;;;;;;;;;4964691;28;99705;-74
2023/03/25 07:27:31;;;;;;;19.13;3.75;;;;;;;;;;4966755;28;98686;-74
2023/03/25 07:30:06;;;;;;;26.10;4.63;;;;;;;;;;4967717;28;98324;-73
2023/03/25 07:32:33;;;;;;;25.98;4.45;;;;;;;;;;4965843;28;100628;-74
2023/03/25 07:34:59;;;;;;;27.90;5.35;;;;;;;;;;4970137;28;100034;-74
2023/03/25 07:37:26;;;;;;;28.42;5.30;;;;;;;;;;4956970;28;99320;-74
2023/03/25 07:39:54;;;;;;;27.05;5.00;;;;;;;;;;4967004;28;102170;-74
2023/03/25 07:42:20;;;;;;;24.15;3.20;;;;;;;;;;4968112;28;98354;-74
2023/03/25 07:45:05;;;;;;;19.88;3.92;;;;;;;;;;4965335;28;99225;-74
2023/03/25 07:47:33;;;;;;;19.80;4.70;;;;;;;;;;4966145;28;99971;-74
2023/03/25 07:50:00;;;;;;;21.92;4.65;;;;;;;;;;4968693;28;98851;-73
2023/03/25 07:52:26;;;;;;;25.92;4.75;;;;;;;;;;4963917;28;99594;-75
2023/03/25 07:54:53;;;;;;;18.52;4.18;;;;;;;;;;4973032;28;100242;-75
2023/03/25 07:57:19;;;;;;;28.00;4.07;;;;;;;;;;4979971;28;98248;-74
2023/03/25 07:59:47;;;;;;;27.73;5.53;;;;;;;;;;4980582;28;99901;-74
2023/03/25 08:02:17;;;;;;;19.13;4.30;;;;;;;;;;4977073;28;98271;-74
2023/03/25 08:04:43;;;;;;;31.73;4.95;;;;;;;;;;4953942;28;99479;-75
2023/03/25 08:07:10;;;;;;;24.80;5.03;;;;;;;;;;4964506;28;99933;-74
2023/03/25 08:09:36;;;;;;;29.77;4.93;;;;;;;;;;4977104;28;98184;-74
2023/03/25 08:12:03;;;;;;;18.95;4.75;;;;;;;;;;4969610;28;99470;-74
2023/03/25 08:14:29;;;;;;;30.40;5.22;;;;;;;;;;4982761;28;100188;-74
2023/03/25 08:16:56;;;;;;;26.83;4.93;;;;;;;;;;4966918;28;98371;-74
2023/03/25 08:19:22;;;;;;;30.98;4.00;;;;;;;;;;4969216;28;98550;-74
2023/03/25 08:21:49;;;;;;;40.92;4.95;;;;;;;;;;4958322;28;98395;-74
2023/03/25 08:24:15;;;;;;;22.38;4.82;;;;;;;;;;4974312;28;99356;-74
2023/03/25 08:26:42;;;;;;;28.48;6.60;;;;;;;;;;4976443;28;98888;-74
2023/03/25 08:29:10;;;;;;;39.80;6.88;;;;;;;;;;4972892;28;98254;-74
2023/03/25 08:31:37;;;;;;;34.80;5.95;;;;;;;;;;4983423;28;99801;-74
2023/03/25 08:34:04;;;;;;;21.30;4.70;;;;;;;;;;4982640;28;100012;-74
2023/03/25 08:36:30;;;;;;;34.40;4.75;;;;;;;;;;4960103;28;99127;-73
2023/03/25 08:38:57;;;;;;;24.98;5.72;;;;;;;;;;4975036;28;98970;-74
2023/03/25 08:41:23;;;;;;;31.95;6.03;;;;;;;;;;4981977;28;100002;-74
2023/03/25 08:43:50;;;;;;;34.95;7.22;;;;;;;;;;4968006;28;99631;-75
2023/03/25 08:46:16;;;;;;;30.27;5.95;;;;;;;;;;4963307;28;99963;-74
2023/03/25 08:48:47;;;;;;;26.48;4.60;;;;;;;;;;4973789;28;98422;-73
2023/03/25 08:51:16;;;;;;;18.20;4.57;;;;;;;;;;4966755;28;99866;-73
2023/03/25 08:53:42;;;;;;;22.80;5.03;;;;;;;;;;4955164;28;100121;-73
2023/03/25 08:56:09;;;;;;;26.73;4.90;;;;;;;;;;4950039;28;98215;-74
2023/03/25 08:58:35;;;;;;;29.73;5.53;;;;;;;;;;4955393;28;99671;-74
2023/03/25 09:01:02;;;;;;;29.50;4.38;;;;;;;;;;4970025;28;99899;-73
2023/03/25 09:03:29;;;;;;;28.33;5.45;;;;;;;;;;4952381;28;98201;-74
2023/03/25 09:05:55;;;;;;;37.65;6.15;;;;;;;;;;4949607;28;98958;-73
2023/03/25 09:08:22;;;;;;;23.15;4.45;;;;;;;;;;4949591;28;98979;-73
2023/03/25 09:10:49;;;;;;;27.67;5.22;;;;;;;;;;4949434;28;100179;-73
2023/03/25 09:13:16;;;;;;;23.70;6.55;;;;;;;;;;4954144;28;99113;-73
2023/03/25 09:15:44;;;;;;;26.85;4.13;;;;;;;;;;4952962;28;99516;-73
2023/03/25 09:18:11;;;;;;;27.88;5.43;;;;;;;;;;4953247;28;101019;-73
2023/03/25 09:20:37;;;;;;;31.15;5.18;;;;;;;;;;4953267;28;98920;-73
2023/03/25 09:23:04;;;;;;;34.00;5.07;;;;;;;;;;4967430;28;99231;-73
2023/03/25 09:25:30;;;;;;;33.72;5.85;;;;;;;;;;4950064;28;101286;-73
2023/03/25 09:27:57;;;;;;;42.50;5.53;;;;;;;;;;4960670;28;99396;-74
2023/03/25 09:30:23;;;;;;;32.65;5.38;;;;;;;;;;4959124;28;100803;-73
2023/03/25 09:32:50;;;;;;;34.95;5.88;;;;;;;;;;4951668;28;99847;-73
2023/03/25 09:35:16;;;;;;;29.98;5.47;;;;;;;;;;4965143;28;98484;-74
2023/03/25 09:37:43;;;;;;;22.02;3.80;;;;;;;;;;4959191;28;99255;-74
2023/03/25 09:40:12;;;;;;;21.73;4.18;;;;;;;;;;4965642;28;99907;-73
2023/03/25 09:42:57;;;;;;;24.67;4.07;;;;;;;;;;4967481;28;98275;-73
2023/03/25 09:45:24;;;;;;;27.38;5.05;;;;;;;;;;4969495;28;99436;-73
2023/03/25 09:47:59;;;;;;;18.92;3.28;;;;;;;;;;4967484;28;98554;-74
2023/03/25 09:50:27;;;;;;;24.73;4.32;;;;;;;;;;4967022;28;99489;-74
2023/03/25 09:53:20;;;;;;;24.58;4.28;;;;;;;;;;4963787;28;100409;-75
2023/03/25 09:55:47;;;;;;;33.22;6.05;;;;;;;;;;4956280;28;99856;-73
2023/03/25 09:58:21;;;;;;;31.25;5.15;;;;;;;;;;4960601;28;99631;-74
2023/03/25 10:00:55;;;;;;;31.25;5.15;;;;;;;;;;4963182;28;99585;-74
2023/03/25 10:03:42;;;;;;;24.35;4.40;;;;;;;;;;4965615;28;98101;-73
2023/03/25 10:06:19;;;;;;;25.90;4.70;;;;;;;;;;4955387;28;101243;-73
2023/03/25 10:08:54;;;;;;;29.60;5.60;;;;;;;;;;4961850;28;100274;-73
2023/03/25 10:11:32;;;;;;;30.95;5.30;;;;;;;;;;4956749;28;99461;-72
2023/03/25 10:14:07;;;;;;;28.77;5.45;;;;;;;;;;4964929;28;100268;-73
2023/03/25 10:16:45;;;;;;;20.90;5.13;;;;;;;;;;4959432;28;98138;-73
2023/03/25 10:19:14;;;;;;;30.33;5.40;;;;;;;;;;4972736;28;99406;-72
2023/03/25 10:21:52;;;;;;;26.27;4.82;;;;;;;;;;4959310;28;99578;-72
2023/03/25 10:24:20;;;;;;;26.80;4.70;;;;;;;;;;4958347;28;98185;-73
2023/03/25 10:26:53;;;;;;;24.20;4.53;;;;;;;;;;4954759;28;100352;-72
2023/03/25 10:29:30;;;;;;;24.85;5.13;;;;;;;;;;4960590;28;99298;-72
2023/03/25 10:31:59;;;;;;;24.98;4.70;;;;;;;;;;4963080;28;98273;-72
2023/03/25 10:34:34;;;;;;;19.88;4.63;;;;;;;;;;4962648;28;99917;-72
2023/03/25 10:37:03;;;;;;;19.38;3.75;;;;;;;;;;4970482;28;98177;-73
2023/03/25 10:39:32;;;;;;;35.70;5.07;;;;;;;;;;4966096;28;99974;-72
2023/03/25 10:42:02;;;;;;;17.52;2.88;;;;;;;;;;4964146;28;99195;-72
2023/03/25 10:44:29;;;;;;;19.60;5.30;;;;;;;;;;4967555;28;98260;-73
2023/03/25 10:46:56;;;;;;;27.23;5.15;;;;;;;;;;4954687;28;99782;-72
2023/03/25 10:49:25;;;;;;;19.95;4.00;;;;;;;;;;4965939;28;102263;-72
2023/03/25 10:51:53;;;;;;;19.63;4.40;;;;;;;;;;4959647;28;98851;-73
2023/03/25 10:54:21;;;;;;;16.98;4.63;;;;;;;;;;4968701;28;99424;-73
2023/03/25 10:56:49;;;;;;;9.63;3.75;;;;;;;;;;4970584;28;98350;-73
2023/03/25 10:59:34;;;;;;;16.88;3.72;;;;;;;;;;4968843;28;98599;-72
2023/03/25 11:02:21;;;;;;;22.25;4.30;;;;;;;;;;4958630;28;100489;-72
2023/03/25 11:04:49;;;;;;;25.50;4.63;;;;;;;;;;4960616;28;99799;-72
2023/03/25 11:07:21;;;;;;;18.40;5.18;;;;;;;;;;4961053;28;98531;-72
2023/03/25 11:09:47;;;;;;;15.05;3.63;;;;;;;;;;4967861;28;100352;-74
2023/03/25 11:12:16;;;;;;;17.40;3.75;;;;;;;;;;4967215;28;100033;-74
2023/03/25 11:14:58;;;;;;;24.45;4.43;;;;;;;;;;4958609;28;98959;-74
2023/03/25 11:17:26;;;;;;;23.98;4.13;;;;;;;;;;4958819;28;100506;-71
2023/03/25 11:19:58;;;;;;;22.25;3.92;;;;;;;;;;4957525;28;99828;-72
2023/03/25 11:22:29;;;;;;;15.05;3.60;;;;;;;;;;4964699;28;99693;-75
2023/03/25 11:24:59;;;;;;;18.10;3.50;;;;;;;;;;4957539;28;99542;-71
2023/03/25 11:27:27;;;;;;;21.55;4.03;;;;;;;;;;4955460;28;99841;-73
2023/03/25 11:29:58;;;;;;;13.60;3.47;;;;;;;;;;4958430;28;99101;-72
2023/03/25 11:32:32;;;;;;;15.75;4.68;;;;;;;;;;4951971;28;98616;-72
2023/03/25 11:35:06;;;;;;;14.82;3.67;;;;;;;;;;4957549;28;98501;-72
2023/03/25 11:37:41;;;;;;;22.55;4.22;;;;;;;;;;4978700;28;99496;-73
2023/03/25 11:40:15;;;;;;;13.55;3.42;;;;;;;;;;4972831;28;98117;-72
2023/03/25 11:42:48;;;;;;;17.60;4.05;;;;;;;;;;4967764;28;99884;-73
2023/03/25 11:45:20;;;;;;;27.02;3.58;;;;;;;;;;4953025;28;99378;-72
2023/03/25 11:47:50;;;;;;;20.50;3.80;;;;;;;;;;4982577;28;98699;-72
2023/03/25 11:50:20;;;;;;;22.92;4.05;;;;;;;;;;4971210;28;99967;-72
2023/03/25 11:52:52;;;;;;;16.92;3.75;;;;;;;;;;4973971;28;98352;-72
2023/03/25 11:55:24;;;;;;;19.60;3.70;;;;;;;;;;4973359;28;98481;-72
2023/03/25 11:57:55;;;;;;;21.10;3.90;;;;;;;;;;4962973;28;99547;-73
2023/03/25 12:00:40;;;;;;;15.65;3.17;;;;;;;;;;4976916;28;98425;-73
2023/03/25 12:03:10;;;;;;;11.05;2.55;;;;;;;;;;4957598;28;100190;-72
2023/03/25 12:05:37;;;;;;;18.42;3.83;;;;;;;;;;4956863;28;99469;-72
2023/03/25 12:08:14;;;;;;;14.93;3.30;;;;;;;;;;4951110;28;98496;-72
2023/03/25 12:11:03;;;;;;;20.53;3.33;;;;;;;;;;4955066;28;100418;-73
2023/03/25 12:13:52;;;;;;;15.57;4.05;;;;;;;;;;4953186;28;99621;-72
2023/03/25 12:16:21;;;;;;;17.58;3.40;;;;;;;;;;4963742;28;99599;-73
2023/03/25 12:18:58;;;;;;;6.80;2.42;;;;;;;;;;4975268;28;99017;-71
2023/03/25 12:21:29;;;;;;;18.40;3.50;;;;;;;;;;4980039;28;98421;-72
2023/03/25 12:24:02;;;;;;;20.88;3.20;;;;;;;;;;4961144;28;99603;-73
2023/03/25 12:26:38;;;;;;;17.13;3.20;;;;;;;;;;4975651;28;98584;-72
2023/03/25 12:29:12;;;;;;;9.52;2.60;;;;;;;;;;4957607;28;99968;-74
2023/03/25 12:31:48;;;;;;;19.98;4.05;;;;;;;;;;4968233;28;99616;-72
2023/03/25 12:34:15;;;;;;;17.08;3.33;;;;;;;;;;4965177;28;102600;-73
2023/03/25 12:36:46;;;;;;;14.00;3.60;;;;;;;;;;4971126;28;100139;-73
2023/03/25 12:39:22;;;;;;;12.73;2.42;;;;;;;;;;4970085;28;98957;-73
2023/03/25 12:42:11;;;;;;;9.70;2.80;;;;;;;;;;4985772;28;98857;-72
2023/03/25 12:44:56;;;;;;;21.17;3.60;;;;;;;;;;4966191;28;99237;-74
2023/03/25 12:47:25;;;;;;;13.68;2.90;;;;;;;;;;4989364;28;99828;-72
2023/03/25 12:50:11;;;;;;;13.07;3.17;;;;;;;;;;4972748;28;99493;-72
2023/03/25 12:52:42;;;;;;;14.15;3.60;;;;;;;;;;4974781;28;100184;-72
2023/03/25 12:55:13;;;;;;;15.98;3.03;;;;;;;;;;4967859;28;99631;-72
2023/03/25 12:57:49;;;;;;;16.60;3.40;;;;;;;;;;4972615;28;99327;-73
2023/03/25 13:00:24;;;;;;;11.27;2.50;;;;;;;;;;4969359;28;98856;-73
2023/03/25 13:03:03;;;;;;;8.77;2.65;;;;;;;;;;4970871;28;98936;-72
2023/03/25 13:05:36;;;;;;;12.77;3.08;;;;;;;;;;4952101;28;99302;-74
2023/03/25 13:08:11;;;;;;;11.07;2.58;;;;;;;;;;4963484;28;99032;-73
2023/03/25 13:10:38;;;;;;;15.70;3.08;;;;;;;;;;4967860;28;98274;-73
2023/03/25 13:13:09;;;;;;;13.95;3.17;;;;;;;;;;4959969;28;99561;-73
2023/03/25 13:15:44;;;;;;;21.17;3.58;;;;;;;;;;4959389;28;99265;-73
2023/03/25 13:18:13;;;;;;;12.13;2.85;;;;;;;;;;4961226;28;99225;-73
2023/03/25 13:20:42;;;;;;;9.38;2.33;;;;;;;;;;4961461;28;99901;-73
2023/03/25 13:23:12;;;;;;;14.35;2.95;;;;;;;;;;4964439;28;99294;-73
2023/03/25 13:25:58;;;;;;;11.48;2.85;;;;;;;;;;4952961;28;99452;-73
2023/03/25 13:28:37;;;;;;;12.30;2.83;;;;;;;;;;4953137;28;99068;-73
2023/03/25 13:31:04;;;;;;;8.98;2.78;;;;;;;;;;4963819;28;98619;-73
2023/03/25 13:33:34;;;;;;;12.15;3.47;;;;;;;;;;4955228;28;99671;-73
2023/03/25 13:36:06;;;;;;;15.90;3.47;;;;;;;;;;4952738;28;100681;-74
2023/03/25 13:38:45;;;;;;;13.18;3.55;;;;;;;;;;4963084;28;99427;-73
2023/03/25 13:41:21;;;;;;;14.32;3.60;;;;;;;;;;4966666;28;99764;-73
2023/03/25 13:44:03;;;;;;;19.60;3.80;;;;;;;;;;4962881;28;98161;-74
2023/03/25 13:46:39;;;;;;;26.60;3.58;;;;;;;;;;4959556;28;99439;-74
2023/03/25 13:49:06;;;;;;;6.88;2.67;;;;;;;;;;4984515;28;99964;-74
2023/03/25 13:51:32;;;;;;;13.57;3.10;;;;;;;;;;4972753;28;98236;-74
2023/03/25 13:54:15;;;;;;;12.85;3.60;;;;;;;;;;4974726;28;99617;-73
2023/03/25 13:56:41;;;;;;;;;;;;;;;;;;4958678;28;98113;-73
2023/03/25 13:59:11;;;;;;;11.43;2.70;;;;;;;;;;4953593;28;128827;-73
2023/03/25 14:01:37;;;;;;;16.60;3.80;;;;;;;;;;4955982;28;98951;-73
2023/03/25 14:04:21;;;;;;;11.80;2.67;;;;;;;;;;4962153;28;98338;-73
2023/03/25 14:07:08;;;;;;;6.70;1.70;;;;;;;;;;4961371;28;99217;-73
2023/03/25 14:09:55;;;;;;;3.72;1.60;;;;;;;;;;4973748;28;100440;-74
2023/03/25 14:12:28;;;;;;;6.72;2.10;;;;;;;;;;4970857;28;98300;-73
2023/03/25 14:15:08;;;;;;;6.03;1.27;;;;;;;;;;4974086;28;99514;-73
2023/03/25 14:17:34;;;;;;;16.38;3.13;;;;;;;;;;4978691;28;100126;-73
2023/03/25 14:20:07;;;;;;;11.23;3.80;;;;;;;;;;4983579;28;99235;-74
2023/03/25 14:22:38;;;;;;;6.57;2.10;;;;;;;;;;4973961;28;98956;-73
2023/03/25 14:25:25;;;;;;;4.78;1.50;;;;;;;;;;4969848;28;98432;-74
2023/03/25 14:27:52;;;;;;;10.35;2.08;;;;;;;;;;4961231;28;99850;-75
2023/03/25 14:30:21;;;;;;;13.30;2.25;;;;;;;;;;4973918;28;100080;-74
2023/03/25 14:32:48;;;;;;;7.22;2.50;;;;;;;;;;4972269;28;98279;-74
2023/03/25 14:35:35;;;;;;;10.98;2.85;;;;;;;;;;4979764;28;99246;-75
2023/03/25 14:38:08;;;;;;;13.77;3.22;;;;;;;;;;4980598;28;99085;-74
2023/03/25 14:40:37;;;;;;;17.08;2.78;;;;;;;;;;4964653;28;98191;-76
2023/03/25 14:43:25;;;;;;;15.05;2.60;;;;;;;;;;4956235;28;99872;-75
2023/03/25 14:45:51;;;;;;;15.05;3.72;;;;;;;;;;4982113;28;98222;-74
2023/03/25 14:48:23;;;;;;;14.60;3.80;;;;;;;;;;4962751;28;99796;-73
2023/03/25 14:51:27;;;;;;;15.23;2.88;;;;;;;;;;4977097;28;101505;-75